Time;durP1;ratioP1;P1;durP2;ratioP2;P2;SDS_P1;SDS_P2;PMS_P1;PMS_P2;Temp;Humidity;BMP_temperature;BMP_pressure;BME280_temperature;BME280_humidity;BME280_pressure;Samples;Min_cycle;Max_cycle;Signal;HPM_P1;HPM_P2
2022/09/24 00:01:11;;;;;;;;;;;;;;;9.15;100.00;99265.80;1691765;83;21098;-68
2022/09/24 00:03:39;;;;;;;4.15;2.85;;;;;;;9.18;100.00;99261.18;1696224;83;20188;-71
2022/09/24 00:06:07;;;;;;;5.58;3.37;;;;;;;9.09;100.00;99261.48;1686695;83;21162;-72
2022/09/24 00:08:35;;;;;;;7.25;3.02;;;;;;;9.07;100.00;99260.38;1698624;83;21022;-72
2022/09/24 00:11:04;;;;;;;8.15;3.10;;;;;;;9.10;100.00;99255.78;1713954;83;21119;-69
2022/09/24 00:13:33;;;;;;;5.10;2.95;;;;;;;9.13;100.00;99253.87;1694831;83;21621;-68
2022/09/24 00:16:11;;;;;;;5.72;2.80;;;;;;;9.16;100.00;99254.68;1697629;83;21574;-69
2022/09/24 00:18:38;;;;;;;6.12;2.85;;;;;;;9.18;100.00;99251.14;1692075;83;20999;-68
2022/09/24 00:21:20;;;;;;;7.03;2.90;;;;;;;9.18;100.00;99249.78;1692961;83;21027;-68
2022/09/24 00:23:55;;;;;;;6.25;3.20;;;;;;;9.10;100.00;99249.53;1703580;83;21062;-72
2022/09/24 00:29:08;;;;;;;5.05;3.40;;;;;;;9.05;100.00;99250.34;1700277;83;21466;-69
2022/09/24 00:31:35;;;;;;;5.75;2.87;;;;;;;9.10;100.00;99254.97;1691887;83;21116;-68
2022/09/24 00:34:01;;;;;;;;;;;;;;;9.14;100.00;99241.91;1670899;85;21408;-72
2022/09/24 00:36:28;;;;;;;7.22;2.92;;;;;;;9.16;100.00;99242.46;1679688;84;20149;-68
2022/09/24 00:38:56;;;;;;;6.95;3.42;;;;;;;9.12;100.00;99245.45;1665999;85;21386;-68
2022/09/24 00:41:27;;;;;;;3.72;2.95;;;;;;;9.09;100.00;99241.93;1666532;85;21129;-69
2022/09/24 00:43:53;;;;;;;4.50;3.08;;;;;;;9.07;100.00;99246.02;1694211;84;21053;-68
2022/09/24 00:46:40;;;;;;;6.33;2.67;;;;;;;9.07;100.00;99244.66;1708744;83;21153;-68
2022/09/24 00:49:15;;;;;;;7.47;3.10;;;;;;;9.09;100.00;99239.75;1704940;83;21069;-70
2022/09/24 00:51:48;;;;;;;4.45;2.58;;;;;;;9.10;100.00;99235.96;1667756;84;21185;-69
2022/09/24 00:54:18;;;;;;;3.80;3.10;;;;;;;9.07;100.00;99235.94;1681185;84;21542;-70
2022/09/24 00:56:47;;;;;;;3.87;3.00;;;;;;;9.04;100.00;99239.20;1674109;84;21538;-69
2022/09/24 00:59:17;;;;;;;5.28;3.22;;;;;;;9.05;100.00;99236.77;1660788;85;21043;-69
2022/09/24 01:01:44;;;;;;;3.90;2.90;;;;;;;9.08;100.00;99236.22;1677367;85;21646;-68
2022/09/24 01:04:11;;;;;;;3.30;2.83;;;;;;;9.11;100.00;99232.95;1662256;85;21024;-69
2022/09/24 01:06:38;;;;;;;4.58;2.87;;;;;;;9.12;100.00;99237.84;1663725;85;21123;-68
2022/09/24 01:09:04;;;;;;;3.60;3.10;;;;;;;9.08;100.00;99237.58;1661598;85;21020;-69
2022/09/24 01:12:08;;;;;;;4.10;2.87;;;;;;;9.03;100.00;99240.32;1669095;85;21585;-70
2022/09/24 01:15:11;;;;;;;3.92;2.95;;;;;;;9.03;100.00;99236.78;1674118;85;21028;-68
2022/09/24 01:18:15;;;;;;;5.80;2.90;;;;;;;9.04;100.00;99235.67;1660604;85;21587;-68
2022/09/24 01:20:56;;;;;;;3.58;2.60;;;;;;;9.04;100.00;99231.06;1664345;85;21078;-68
2022/09/24 01:23:38;;;;;;;5.22;2.67;;;;;;;9.06;100.00;99225.38;1680638;85;21111;-68
2022/09/24 01:26:18;;;;;;;3.55;2.72;;;;;;;9.09;100.00;99231.61;1668759;85;21092;-68
2022/09/24 01:29:22;;;;;;;5.50;2.90;;;;;;;9.09;100.00;99229.71;1656862;85;21051;-68
2022/09/24 01:32:00;;;;;;;5.25;2.70;;;;;;;9.10;100.00;99231.34;1666005;85;21114;-68
2022/09/24 01:34:35;;;;;;;6.10;2.90;;;;;;;9.13;100.00;99222.65;1664330;85;21028;-71
2022/09/24 01:37:02;;;;;;;4.42;3.00;;;;;;;9.12;100.00;99225.63;1655266;85;21075;-68
2022/09/24 01:39:30;;;;;;;4.28;3.02;;;;;;;9.08;100.00;99225.90;1655125;85;21056;-69
2022/09/24 01:41:57;;;;;;;8.90;3.08;;;;;;;9.03;100.00;99234.89;1672231;85;21736;-69
2022/09/24 01:44:23;;;;;;;4.53;3.40;;;;;;;8.95;100.00;99221.86;1675467;85;21087;-68
2022/09/24 01:46:49;;;;;;;5.95;3.08;;;;;;;8.98;100.00;99236.23;1673348;85;21127;-68
2022/09/24 01:49:16;;;;;;;5.42;3.25;;;;;;;8.99;100.00;99229.73;1658073;85;21067;-69
2022/09/24 01:51:51;;;;;;;4.08;3.00;;;;;;;8.99;100.00;99226.48;1671377;84;21118;-68
2022/09/24 01:54:34;;;;;;;6.40;3.55;;;;;;;8.95;100.00;99225.93;1674523;85;21019;-69
2022/09/24 01:57:14;;;;;;;8.45;2.47;;;;;;;8.92;100.00;99229.20;1663249;85;21091;-69
2022/09/24 01:59:54;;;;;;;6.78;2.70;;;;;;;8.96;100.00;99223.50;1668619;85;21142;-68
2022/09/24 02:02:27;;;;;;;4.00;2.90;;;;;;;8.95;100.00;99226.75;1675424;85;21134;-68
2022/09/24 02:05:00;;;;;;;3.77;2.87;;;;;;;8.95;100.00;99223.22;1691144;84;21065;-68
2022/09/24 02:07:38;;;;;;;3.95;2.85;;;;;;;8.90;100.00;99227.28;1696523;84;20999;-68
2022/09/24 02:10:09;;;;;;;4.33;3.27;;;;;;;8.88;100.00;99233.54;1685262;84;20998;-68
2022/09/24 02:12:41;;;;;;;6.28;3.30;;;;;;;8.89;100.00;99230.53;1680486;84;21141;-68
2022/09/24 02:15:16;;;;;;;4.53;2.87;;;;;;;8.86;100.00;99228.38;1662518;85;21111;-68
2022/09/24 02:17:45;;;;;;;5.87;2.62;;;;;;;8.83;100.00;99231.63;1685092;84;22228;-72
2022/09/24 02:20:15;;;;;;;5.47;3.00;;;;;;;8.80;100.00;99230.01;1683185;84;21680;-70
2022/09/24 02:22:41;;;;;;;5.00;2.47;;;;;;;8.76;100.00;99224.84;1692055;84;21592;-70
2022/09/24 02:25:16;;;;;;;4.90;2.65;;;;;;;8.74;100.00;99229.75;1674537;85;21134;-69
2022/09/24 02:27:44;;;;;;;5.70;3.00;;;;;;;8.76;100.00;99238.42;1691476;84;21105;-69
2022/09/24 02:30:11;;;;;;;10.45;3.22;;;;;;;8.71;100.00;99235.72;1670055;84;21098;-69
2022/09/24 02:32:39;;;;;;;8.15;3.37;;;;;;;8.74;100.00;99237.89;1644285;84;21084;-68
2022/09/24 02:35:08;;;;;;;3.65;3.00;;;;;;;8.78;100.00;99234.91;1663186;85;21694;-68
2022/09/24 02:37:37;;;;;;;8.28;2.95;;;;;;;8.75;100.00;99237.59;1696848;84;21537;-69
2022/09/24 02:40:05;;;;;;;6.17;2.90;;;;;;;8.76;100.00;99237.88;1682320;84;21098;-71
2022/09/24 02:42:31;;;;;;;7.10;3.17;;;;;;;8.77;100.00;99234.62;1680431;84;21117;-68
2022/09/24 02:44:59;;;;;;;;;;;;;;;8.77;100.00;99242.23;1695065;84;21715;-69
2022/09/24 02:47:28;;;;;;;4.25;3.05;;;;;;;8.74;100.00;99235.17;1691137;84;20139;-69
2022/09/24 02:49:55;;;;;;;6.58;3.20;;;;;;;8.64;100.00;99232.46;1696839;84;21403;-68
2022/09/24 02:52:22;;;;;;;6.97;3.00;;;;;;;8.67;100.00;99231.92;1666711;84;21081;-69
2022/09/24 02:54:49;;;;;;;5.95;3.27;;;;;;;8.69;100.00;99234.62;1733032;82;21055;-71
2022/09/24 02:57:17;;;;;;;5.15;2.50;;;;;;;8.73;100.00;99238.97;1715636;82;21023;-68
2022/09/24 02:59:44;;;;;;;4.85;3.05;;;;;;;8.75;100.00;99236.81;1727067;82;21034;-68
2022/09/24 03:02:11;;;;;;;4.80;2.75;;;;;;;8.72;100.00;99236.79;1728741;82;21535;-69
2022/09/24 03:04:38;;;;;;;;;;;;;;;8.73;100.00;99241.14;1726045;82;21433;-68
2022/09/24 03:07:04;;;;;;;3.90;2.87;;;;;;;8.76;100.00;99235.70;1717745;82;20141;-68
2022/09/24 03:09:31;;;;;;;4.83;2.55;;;;;;;8.71;100.00;99242.50;1722905;82;21397;-69
2022/09/24 03:11:59;;;;;;;;;;;;;;;8.68;100.00;99243.05;1724252;82;21058;-68
2022/09/24 03:14:26;;;;;;;5.62;2.95;;;;;;;8.71;100.00;99247.93;1720186;82;20148;-69
2022/09/24 03:16:53;;;;;;;5.30;3.05;;;;;;;8.69;100.00;99241.95;1730022;82;21078;-68
2022/09/24 03:19:19;;;;;;;4.42;3.58;;;;;;;8.71;100.00;99252.82;1734532;82;21035;-68
2022/09/24 03:21:46;;;;;;;5.65;3.40;;;;;;;8.67;100.00;99249.55;1724637;82;21082;-68
2022/09/24 03:24:12;;;;;;;5.58;3.05;;;;;;;8.67;100.00;99250.91;1728349;82;21529;-69
2022/09/24 03:26:39;;;;;;;5.15;3.27;;;;;;;8.72;100.00;99249.53;1719955;82;21079;-69
2022/09/24 03:29:05;;;;;;;3.65;2.70;;;;;;;8.74;100.00;99246.03;1729984;82;21091;-69
2022/09/24 03:31:31;;;;;;;4.05;2.47;;;;;;;8.71;100.00;99247.39;1726676;82;21114;-70
2022/09/24 03:33:58;;;;;;;3.70;2.80;;;;;;;8.67;100.00;99246.84;1725066;82;21019;-68
2022/09/24 03:36:25;;;;;;;3.95;2.50;;;;;;;8.68;100.00;99247.91;1717886;82;21439;-69
2022/09/24 03:38:55;;;;;;;4.28;2.90;;;;;;;8.67;100.00;99255.80;1724567;82;20975;-69
2022/09/24 03:41:23;;;;;;;8.08;2.70;;;;;;;8.64;100.00;99248.20;1730297;82;21047;-68
2022/09/24 03:43:49;;;;;;;6.58;2.60;;;;;;;8.60;100.00;99253.08;1733434;82;21007;-68
2022/09/24 03:46:16;;;;;;;5.80;2.90;;;;;;;8.57;100.00;99248.20;1726578;82;21074;-68
2022/09/24 03:48:42;;;;;;;4.42;3.08;;;;;;;8.57;100.00;99249.02;1729230;82;22489;-69
2022/09/24 03:51:14;;;;;;;;;;;;;;;8.56;100.00;99246.56;1728642;82;21051;-69
2022/09/24 03:53:41;;;;;;;4.35;3.40;;;;;;;8.59;100.00;99247.37;1722256;82;20164;-70
2022/09/24 03:56:08;;;;;;;3.62;2.90;;;;;;;8.53;100.00;99245.21;1710326;82;21082;-71
2022/09/24 03:58:37;;;;;;;6.85;2.90;;;;;;;8.54;100.00;99255.52;1740791;81;21827;-69
2022/09/24 04:01:05;;;;;;;4.28;3.10;;;;;;;8.55;100.00;99250.34;1741240;82;21062;-68
2022/09/24 04:03:32;;;;;;;8.40;3.35;;;;;;;8.55;100.00;99255.77;1732528;82;21042;-68
2022/09/24 04:06:51;;;;;;;6.13;3.60;;;;;;;8.61;100.00;99244.65;1795052;79;23097;-67
2022/09/24 04:09:18;;;;;;;4.70;3.08;;;;;;;8.56;100.00;99248.73;1761222;80;21857;-67
2022/09/24 04:11:44;;;;;;;3.80;2.72;;;;;;;8.56;100.00;99254.16;1750299;81;21110;-67
2022/09/24 04:14:10;;;;;;;;;;;;;;;8.61;100.00;99252.00;1758126;81;21050;-69
2022/09/24 04:16:39;;;;;;;5.70;2.65;;;;;;;8.63;100.00;99252.53;1756220;80;20114;-70
2022/09/24 04:19:06;;;;;;;3.92;3.05;;;;;;;8.58;100.00;99259.30;1750621;80;20976;-68
2022/09/24 04:21:33;;;;;;;6.60;3.08;;;;;;;8.57;100.00;99254.44;1749421;81;21059;-67
2022/09/24 04:24:00;;;;;;;4.87;3.05;;;;;;;8.57;100.00;99264.48;1755529;81;21043;-67
2022/09/24 04:26:26;;;;;;;4.35;3.27;;;;;;;8.58;100.00;99261.47;1767873;80;21074;-68
2022/09/24 04:28:53;;;;;;;6.30;3.02;;;;;;;8.60;100.00;99262.04;1768648;80;21055;-70
2022/09/24 04:31:19;;;;;;;5.25;3.17;;;;;;;8.62;100.00;99268.53;1752758;81;21062;-70
2022/09/24 04:33:46;;;;;;;4.25;2.95;;;;;;;8.57;100.00;99261.77;1757259;81;21022;-70
2022/09/24 04:36:13;;;;;;;;;;;;;;;8.56;100.00;99266.91;1763251;80;21059;-70
2022/09/24 04:38:39;;;;;;;5.10;3.08;;;;;;;8.59;100.00;99263.65;1764500;80;20178;-70
2022/09/24 04:41:07;;;;;;;5.85;3.30;;;;;;;8.55;100.00;99261.20;1750752;81;21052;-70
2022/09/24 04:43:33;;;;;;;6.25;3.17;;;;;;;8.53;100.00;99261.48;1754213;81;21042;-70
2022/09/24 04:46:00;;;;;;;11.97;5.58;;;;;;;8.57;100.00;99264.48;1750039;80;21095;-70
2022/09/24 04:48:27;;;;;;;13.88;6.58;;;;;;;8.66;100.00;99262.84;1748880;81;21117;-73
2022/09/24 04:50:53;;;;;;;20.88;10.43;;;;;;;8.70;100.00;99268.00;1746799;81;21066;-70
2022/09/24 04:53:20;;;;;;;7.47;5.28;;;;;;;8.70;100.00;99261.22;1748952;81;21290;-70
2022/09/24 04:55:47;;;;;;;5.28;3.20;;;;;;;8.69;100.00;99271.25;1755705;80;21600;-69
2022/09/24 04:58:13;;;;;;;4.22;3.05;;;;;;;8.72;100.00;99270.71;1749962;81;21038;-70
2022/09/24 05:00:42;;;;;;;6.45;3.58;;;;;;;8.76;100.00;99272.34;1757903;81;21097;-70
2022/09/24 05:03:09;;;;;;;5.08;2.98;;;;;;;8.79;100.00;99272.61;1751176;81;21046;-71
2022/09/24 05:05:36;;;;;;;6.20;3.00;;;;;;;8.80;100.00;99274.78;1708717;82;21087;-71
2022/09/24 05:08:03;;;;;;;5.25;3.30;;;;;;;8.85;100.00;99275.63;1713418;83;21521;-73
2022/09/24 05:10:32;;;;;;;3.87;2.72;;;;;;;8.89;100.00;99273.17;1696249;83;21097;-70
2022/09/24 05:12:58;;;;;;;5.08;3.58;;;;;;;8.95;100.00;99274.80;1723506;83;21612;-73
2022/09/24 05:15:25;;;;;;;7.03;4.30;;;;;;;8.99;100.00;99279.95;1717651;82;21154;-72
2022/09/24 05:17:51;;;;;;;6.60;4.42;;;;;;;9.05;100.00;99273.42;1717142;83;21055;-70
2022/09/24 05:20:18;;;;;;;4.60;3.60;;;;;;;9.08;100.00;99276.95;1700052;83;21043;-70
2022/09/24 05:22:46;;;;;;;5.08;3.12;;;;;;;9.07;100.00;99275.31;1722647;82;22560;-71
2022/09/24 05:25:13;;;;;;;4.50;2.98;;;;;;;9.13;100.00;99278.31;1719970;83;21066;-70
2022/09/24 05:27:47;;;;;;;4.28;2.80;;;;;;;9.19;100.00;99278.57;1718355;82;21042;-70
2022/09/24 05:30:15;;;;;;;4.67;3.60;;;;;;;9.22;100.00;99271.23;1711997;83;21090;-69
2022/09/24 05:32:43;;;;;;;5.42;3.12;;;;;;;9.21;100.00;99275.02;1719080;83;21543;-69
2022/09/24 05:35:09;;;;;;;6.45;3.50;;;;;;;9.19;100.00;99278.57;1694266;82;21093;-71
2022/09/24 05:37:37;;;;;;;7.33;4.30;;;;;;;9.25;100.00;99277.47;1708480;83;21382;-71
2022/09/24 05:42:50;;;;;;;7.67;3.37;;;;;;;9.26;100.00;99276.39;1719053;83;21759;-71
2022/09/24 05:45:17;;;;;;;5.72;3.00;;;;;;;9.32;100.00;99275.82;1717623;83;21157;-72
2022/09/24 05:47:45;;;;;;;8.00;3.62;;;;;;;9.33;100.00;99274.20;1722318;82;21078;-72
2022/09/24 05:50:12;;;;;;;5.17;3.00;;;;;;;9.38;100.00;99277.46;1722877;83;21069;-72
2022/09/24 05:52:39;;;;;;;6.20;4.10;;;;;;;9.46;100.00;99276.87;1722735;82;21075;-71
2022/09/24 05:55:07;;;;;;;4.45;3.30;;;;;;;9.56;100.00;99270.09;1719918;83;21027;-71
2022/09/24 05:57:34;;;;;;;5.08;3.20;;;;;;;9.60;100.00;99270.34;1719899;83;21042;-71
2022/09/24 06:00:01;;;;;;;8.95;4.87;;;;;;;9.63;100.00;99273.87;1721699;83;21020;-70
2022/09/24 06:02:27;;;;;;;8.58;4.62;;;;;;;9.73;100.00;99266.49;1721656;82;21042;-70
2022/09/24 06:04:54;;;;;;;9.05;5.60;;;;;;;9.86;100.00;99275.94;1704035;83;21661;-69
2022/09/24 06:07:21;;;;;;;7.55;3.80;;;;;;;9.93;100.00;99273.73;1739110;81;21105;-69
2022/09/24 06:09:47;;;;;;;7.70;3.75;;;;;;;9.96;100.00;99271.28;1739777;82;20995;-69
2022/09/24 06:12:14;;;;;;;6.45;3.20;;;;;;;10.02;100.00;99270.73;1737722;81;20987;-69
2022/09/24 06:14:42;;;;;;;3.02;2.27;;;;;;;10.10;100.00;99274.20;1735351;82;21105;-70
2022/09/24 06:17:09;;;;;;;4.75;2.40;;;;;;;10.18;100.00;99280.99;1737665;81;21466;-70
2022/09/24 06:19:36;;;;;;;6.55;4.70;;;;;;;10.18;100.00;99280.99;1726096;82;20987;-71
2022/09/24 06:22:02;;;;;;;;;;;;;;;10.13;100.00;99280.44;1730037;81;20986;-73
2022/09/24 06:24:29;;;;;;;2.90;2.20;;;;;;;10.07;100.00;99281.56;1744384;82;20146;-71
2022/09/24 06:26:57;;;;;;;4.22;2.42;;;;;;;10.06;100.00;99290.80;1743183;82;21114;-73
2022/09/24 06:29:23;;;;;;;3.58;2.45;;;;;;;10.12;100.00;99290.25;1720530;81;21043;-70
2022/09/24 06:31:52;;;;;;;3.08;2.05;;;;;;;10.23;100.00;99295.41;1736170;81;21130;-70
2022/09/24 06:34:18;;;;;;;4.47;2.40;;;;;;;10.35;100.00;99295.86;1753954;81;21019;-70
2022/09/24 06:36:44;;;;;;;;;;;;;;;10.49;100.00;99304.21;1735348;82;21055;-70
2022/09/24 06:39:10;;;;;;;5.92;2.08;;;;;;;10.58;100.00;99299.00;1741548;81;20131;-72
2022/09/24 06:41:37;;;;;;;2.98;2.20;;;;;;;10.43;100.00;99311.61;1718372;82;21079;-70
2022/09/24 06:44:03;;;;;;;4.22;1.98;;;;;;;10.47;100.00;99315.94;1718690;82;21078;-70
2022/09/24 06:46:30;;;;;;;2.92;2.02;;;;;;;10.59;100.00;99318.33;1722389;82;21628;-70
2022/09/24 06:48:56;;;;;;;2.47;1.87;;;;;;;10.63;100.00;99317.46;1708014;82;21137;-70
2022/09/24 06:51:23;;;;;;;;;;;;;;;10.75;100.00;99313.03;1741259;81;21569;-72
2022/09/24 06:53:52;;;;;;;3.67;2.00;;;;;;;10.94;100.00;99316.72;1716933;82;20123;-72
2022/09/24 06:56:20;;;;;;;3.62;1.90;;;;;;;10.91;100.00;99321.38;1744879;82;21102;-70
2022/09/24 06:58:46;;;;;;;;;;;;;;;10.95;100.00;99322.41;1751127;81;21059;-70
2022/09/24 07:01:13;;;;;;;4.95;2.00;;;;;;;11.06;100.00;99321.78;1757788;81;20146;-71
2022/09/24 07:03:40;;;;;;;3.98;2.05;;;;;;;11.08;100.00;99319.06;1736553;82;21599;-70
2022/09/24 07:06:08;;;;;;;3.20;2.20;;;;;;;11.23;100.00;99322.20;1729242;82;21144;-71
2022/09/24 07:08:35;;;;;;;3.80;2.15;;;;;;;11.36;100.00;99321.53;1712338;82;21103;-68
2022/09/24 07:11:01;;;;;;;2.98;2.10;;;;;;;11.59;100.00;99326.75;1721169;82;21114;-71
2022/09/24 07:13:29;;;;;;;3.17;1.80;;;;;;;11.84;100.00;99322.42;1732807;82;21774;-72
2022/09/24 07:15:56;;;;;;;2.80;2.08;;;;;;;11.88;100.00;99318.84;1720271;82;21118;-70
2022/09/24 07:18:22;;;;;;;;;;;;;;;11.85;100.00;99326.23;1734387;82;21060;-70
2022/09/24 07:20:54;;;;;;;3.17;2.12;;;;;;;11.79;100.00;99323.86;1715525;82;20435;-70
2022/09/24 07:23:20;;;;;;;2.42;1.85;;;;;;;11.78;100.00;99318.14;1717422;82;21130;-71
2022/09/24 07:25:47;;;;;;;4.55;2.10;;;;;;;11.77;100.00;99323.32;1720127;82;21082;-72
2022/09/24 07:28:17;;;;;;;2.47;1.85;;;;;;;11.77;100.00;99317.31;1716353;82;21671;-74
2022/09/24 07:30:45;;;;;;;2.85;1.85;;;;;;;11.74;100.00;99319.27;1715895;82;21122;-68
2022/09/24 07:33:11;;;;;;;2.90;2.10;;;;;;;11.74;100.00;99317.09;1716432;82;21058;-70
2022/09/24 07:35:38;;;;;;;3.30;2.00;;;;;;;11.77;100.00;99317.87;1718046;82;21153;-70
2022/09/24 07:38:10;;;;;;;2.95;2.02;;;;;;;11.91;100.00;99317.43;1729300;82;21128;-70
2022/09/24 07:40:36;;;;;;;3.80;2.10;;;;;;;12.11;100.00;99324.03;1738985;82;21065;-68
2022/09/24 07:43:03;;;;;;;;;;;;;;;12.22;100.00;99321.41;1726116;82;21013;-67
2022/09/24 07:45:32;;;;;;;2.42;1.67;;;;;;;12.29;100.00;99318.35;1710069;82;20432;-71
2022/09/24 07:48:01;;;;;;;3.27;1.55;;;;;;;12.37;100.00;99323.95;1721499;82;21085;-69
2022/09/24 07:50:31;;;;;;;3.42;1.50;;;;;;;12.57;100.00;99322.06;1718575;82;21063;-72
2022/09/24 07:52:57;;;;;;;2.70;1.80;;;;;;;12.67;100.00;99309.08;1719803;82;21099;-68
2022/09/24 07:55:24;;;;;;;3.17;1.90;;;;;;;12.73;100.00;99316.63;1722842;82;21098;-70
2022/09/24 07:57:53;;;;;;;2.77;1.60;;;;;;;12.68;100.00;99318.88;1734157;82;21524;-69
2022/09/24 08:00:20;;;;;;;2.42;1.50;;;;;;;12.60;100.00;99321.47;1708019;82;22242;-71
2022/09/24 08:02:46;;;;;;;2.40;1.70;;;;;;;12.64;100.00;99329.34;1723360;82;21105;-70
2022/09/24 08:05:15;;;;;;;3.10;1.57;;;;;;;12.67;100.00;99313.17;1725671;82;21599;-73
2022/09/24 08:07:42;;;;;;;2.37;1.80;;;;;;;12.61;100.00;99319.01;1721021;82;21735;-67
2022/09/24 08:10:08;;;;;;;2.42;1.40;;;;;;;12.53;100.00;99327.30;1739421;80;21114;-68
2022/09/24 08:12:35;;;;;;;4.33;2.27;;;;;;;12.43;100.00;99326.86;1721293;81;21073;-72
2022/09/24 08:15:01;;;;;;;;;;;;;;;12.59;100.00;99328.84;1748791;81;21584;-72
2022/09/24 08:17:28;;;;;;;2.30;1.40;;;;;;;12.63;100.00;99330.44;1745729;80;20453;-70
2022/09/24 08:19:55;;;;;;;3.22;2.20;;;;;;;12.51;100.00;99331.41;1718713;81;21086;-69
2022/09/24 08:22:23;;;;;;;4.47;1.77;;;;;;;12.52;100.00;99331.67;1750893;80;21044;-73
2022/09/24 08:24:50;;;;;;;4.35;1.80;;;;;;;12.62;100.00;99337.81;1747379;81;20998;-73
2022/09/24 08:27:19;;;;;;;2.60;1.70;;;;;;;12.88;100.00;99338.26;1751709;81;21559;-73
2022/09/24 08:29:45;;;;;;;4.08;2.20;;;;;;;13.03;100.00;99343.50;1714604;82;21901;-72
2022/09/24 08:32:12;;;;;;;4.97;3.40;;;;;;;13.08;100.00;99337.12;1752760;80;21043;-68
2022/09/24 08:34:39;;;;;;;2.72;1.95;;;;;;;13.02;100.00;99336.40;1751374;82;21095;-67
2022/09/24 08:37:07;;;;;;;6.72;2.00;;;;;;;12.97;100.00;99332.37;1747881;81;21083;-70
2022/09/24 08:39:34;;;;;;;3.30;1.82;;;;;;;13.03;100.00;99326.29;1749176;80;21047;-69
2022/09/24 08:42:04;;;;;;;5.72;2.20;;;;;;;13.24;100.00;99337.99;1722333;82;20988;-69
2022/09/24 08:47:47;;;;;;;2.70;2.20;;;;;;;13.15;100.00;99342.50;1736839;80;20977;-69
2022/09/24 08:50:23;;;;;;;5.10;2.12;;;;;;;13.11;100.00;99339.31;1750216;82;21521;-70
2022/09/24 08:53:36;;;;;;;3.67;1.98;;;;;;;13.37;100.00;99343.23;1748766;81;21908;-68
2022/09/24 08:56:03;;;;;;;2.67;1.80;;;;;;;13.79;100.00;99352.59;1751281;81;21042;-68
2022/09/24 08:58:58;;;;;;;2.47;1.90;;;;;;;13.95;100.00;99341.63;1743634;80;21082;-69
2022/09/24 09:02:02;;;;;;;2.70;1.80;;;;;;;13.98;100.00;99344.31;1716951;82;22393;-70
2022/09/24 09:04:34;;;;;;;2.60;1.70;;;;;;;13.94;100.00;99335.89;1693721;83;21507;-71
2022/09/24 09:07:25;;;;;;;3.27;1.80;;;;;;;14.03;100.00;99339.30;1717325;81;21043;-70
2022/09/24 09:10:15;;;;;;;2.22;1.70;;;;;;;14.08;100.00;99333.71;1755683;81;21095;-69
2022/09/24 09:12:47;;;;;;;3.27;1.82;;;;;;;14.11;100.00;99339.39;1753540;81;21591;-67
2022/09/24 09:15:24;;;;;;;3.20;1.90;;;;;;;14.13;100.00;99340.47;1750938;81;21596;-67
2022/09/24 09:18:03;;;;;;;4.33;1.80;;;;;;;13.99;100.00;99340.47;1742603;80;21013;-68
2022/09/24 09:20:34;;;;;;;2.17;1.50;;;;;;;13.94;100.00;99343.29;1743744;81;21500;-69
2022/09/24 09:23:05;;;;;;;4.03;1.90;;;;;;;13.91;100.00;99339.25;1726464;81;21003;-67
2022/09/24 09:25:35;;;;;;;2.05;1.60;;;;;;;14.07;100.00;99342.48;1747445;80;21145;-67
2022/09/24 09:28:14;;;;;;;2.25;1.60;;;;;;;14.03;100.00;99342.05;1707068;82;20987;-67
2022/09/24 09:30:49;;;;;;;2.95;1.70;;;;;;;13.87;100.00;99339.59;1745812;81;21025;-70
2022/09/24 09:33:36;;;;;;;2.55;1.42;;;;;;;13.89;100.00;99331.06;1698484;81;20985;-67
2022/09/24 09:36:53;;;;;;;2.92;1.77;;;;;;;13.86;100.00;99326.20;1750742;80;20987;-65
2022/09/24 09:39:36;;;;;;;3.05;1.70;;;;;;;13.96;100.00;99332.29;1754815;81;21534;-67
2022/09/24 09:42:31;;;;;;;3.77;1.70;;;;;;;14.18;100.00;99330.21;1752782;81;21007;-65
2022/09/24 09:45:23;;;;;;;3.27;2.08;;;;;;;14.28;100.00;99330.00;1756761;81;21079;-68
2022/09/24 09:47:57;;;;;;;4.33;1.50;;;;;;;14.34;100.00;99326.64;1754711;80;21266;-67
2022/09/24 09:50:36;;;;;;;2.25;1.50;;;;;;;14.36;100.00;99321.66;1764890;81;21170;-66
2022/09/24 09:53:04;;;;;;;2.92;1.50;;;;;;;14.29;100.00;99311.65;1721029;81;22362;-69
2022/09/24 09:55:35;;;;;;;2.00;1.20;;;;;;;14.17;100.00;99320.38;1751263;80;21134;-65
2022/09/24 09:58:16;;;;;;;2.37;1.30;;;;;;;14.01;100.00;99313.59;1753255;81;21062;-68
2022/09/24 10:00:43;;;;;;;1.65;1.30;;;;;;;13.91;100.00;99314.62;1740246;81;21502;-65
2022/09/24 10:03:23;;;;;;;4.83;1.40;;;;;;;13.81;100.00;99305.24;1750915;81;21027;-65
2022/09/24 10:05:58;;;;;;;2.52;1.45;;;;;;;13.68;100.00;99307.94;1759803;80;21589;-67
2022/09/24 10:08:25;;;;;;;2.25;1.15;;;;;;;13.59;100.00;99310.58;1734899;82;21031;-68
2022/09/24 10:10:56;;;;;;;2.87;1.40;;;;;;;13.71;100.00;99303.27;1747605;82;21094;-69
2022/09/24 10:13:23;;;;;;;2.77;1.27;;;;;;;13.80;100.00;99301.43;1745603;82;21019;-70
2022/09/24 10:15:54;;;;;;;1.90;1.12;;;;;;;13.99;100.00;99306.27;1768965;81;21589;-67
2022/09/24 10:18:32;;;;;;;4.03;1.00;;;;;;;14.17;100.00;99305.31;1751321;81;21641;-67
2022/09/24 10:21:03;;;;;;;1.95;1.05;;;;;;;14.30;100.00;99305.88;1737494;82;21124;-67
2022/09/24 10:23:42;;;;;;;2.90;1.20;;;;;;;14.30;100.00;99296.85;1715654;83;21064;-67
2022/09/24 10:26:09;;;;;;;3.52;1.42;;;;;;;14.19;100.00;99296.26;1749248;81;21115;-71
2022/09/24 10:31:34;;;;;;;2.20;1.35;;;;;;;13.93;100.00;99303.35;1734525;81;21071;-68
2022/09/24 10:34:00;;;;;;;2.05;1.20;;;;;;;13.85;100.00;99296.66;1730939;81;21051;-67
2022/09/24 10:36:29;;;;;;;1.82;1.17;;;;;;;14.00;100.00;99307.05;1752781;81;21083;-70
2022/09/24 10:39:13;;;;;;;2.60;1.40;;;;;;;14.01;100.00;99308.67;1747001;82;21078;-68
2022/09/24 10:41:51;;;;;;;2.85;1.80;;;;;;;13.88;100.00;99307.58;1723633;83;21082;-68
2022/09/24 10:44:19;;;;;;;2.47;1.47;;;;;;;13.74;100.00;99304.84;1735798;81;21011;-68
2022/09/24 10:47:11;;;;;;;4.78;1.30;;;;;;;13.69;100.00;99298.63;1717086;82;21049;-69
2022/09/24 10:49:52;;;;;;;1.45;1.10;;;;;;;13.75;100.00;99305.62;1733676;82;21048;-68
2022/09/24 10:52:44;;;;;;;2.17;1.10;;;;;;;13.98;100.00;99302.45;1743872;81;21736;-66
2022/09/24 10:55:20;;;;;;;1.80;1.07;;;;;;;14.14;100.00;99308.67;1753252;82;21089;-65
2022/09/24 10:58:25;;;;;;;1.92;0.82;;;;;;;14.28;100.00;99295.77;1731640;82;21029;-71
2022/09/24 11:01:15;;;;;;;1.40;1.00;;;;;;;14.34;100.00;99297.34;1723689;83;21576;-66
2022/09/24 11:03:55;;;;;;;2.45;1.30;;;;;;;14.24;100.00;99296.13;1724802;81;21082;-69
2022/09/24 11:06:50;;;;;;;2.12;1.30;;;;;;;14.13;100.00;99300.22;1742476;82;21153;-70
2022/09/24 11:09:50;;;;;;;1.95;1.30;;;;;;;14.01;100.00;99300.47;1730264;82;21594;-66
2022/09/24 11:13:02;;;;;;;1.90;1.02;;;;;;;13.94;100.00;99299.52;1749333;81;21531;-68
2022/09/24 11:15:58;;;;;;;2.35;1.20;;;;;;;13.97;100.00;99300.27;1752659;82;21670;-68
2022/09/24 11:18:50;;;;;;;2.67;1.12;;;;;;;13.96;100.00;99299.45;1741335;82;21099;-66
2022/09/24 11:21:40;;;;;;;1.92;0.90;;;;;;;13.92;100.00;99306.64;1747661;82;21098;-68
2022/09/24 11:24:33;;;;;;;2.17;1.00;;;;;;;13.96;100.00;99298.64;1753345;82;21055;-69
2022/09/24 11:27:14;;;;;;;1.80;1.02;;;;;;;13.94;100.00;99303.06;1749581;82;21023;-69
2022/09/24 11:29:57;;;;;;;2.10;1.10;;;;;;;13.90;100.00;99298.49;1746021;82;21724;-68
2022/09/24 11:32:55;;;;;;;1.70;0.95;;;;;;;13.87;100.00;99297.73;1767322;81;21553;-67
2022/09/24 11:35:59;;;;;;;4.60;2.30;;;;;;;13.88;100.00;99292.52;1765261;80;21066;-65
2022/09/24 11:39:00;;;;;;;4.80;3.20;;;;;;;13.86;100.00;99307.05;1711386;83;21071;-67
2022/09/24 11:41:54;;;;;;;2.75;1.60;;;;;;;13.91;100.00;99303.67;1712254;82;21404;-67
2022/09/24 11:44:47;;;;;;;1.95;1.25;;;;;;;14.01;100.00;99293.08;1742344;81;21105;-65
2022/09/24 11:47:34;;;;;;;2.37;0.80;;;;;;;14.21;100.00;99300.85;1748614;82;21035;-68
2022/09/24 11:50:55;;;;;;;4.78;1.15;;;;;;;14.49;100.00;99292.64;1743147;81;21083;-65
2022/09/24 11:53:45;;;;;;;2.20;0.60;;;;;;;14.49;100.00;99290.69;1771700;81;21034;-68
2022/09/24 11:56:35;;;;;;;1.02;0.70;;;;;;;14.48;100.00;99275.40;1743947;82;21139;-70
2022/09/24 11:59:21;;;;;;;1.77;0.82;;;;;;;14.37;100.00;99269.34;1751671;82;21060;-71
2022/09/24 12:02:02;;;;;;;1.12;0.80;;;;;;;14.33;100.00;99282.55;1730970;81;21605;-64
2022/09/24 12:04:47;;;;;;;1.47;0.80;;;;;;;14.32;100.00;99284.47;1720023;82;21550;-68
2022/09/24 12:07:18;;;;;;;2.20;1.20;;;;;;;14.23;100.00;99301.93;1743296;82;21000;-71
2022/09/24 12:09:55;;;;;;;3.33;0.90;;;;;;;13.75;100.00;99332.97;1747387;81;21016;-68